createdAt,value
2018-12-18T00:00:50.961Z,28.37
2018-12-18T00:03:18.557Z,28.43
2018-12-18T00:05:46.135Z,32.93
2018-12-18T00:08:13.744Z,36.73
2018-12-18T00:10:46.596Z,31.87
2018-12-18T00:13:14.262Z,31.43
2018-12-18T00:15:41.925Z,31.13
2018-12-18T00:18:09.538Z,35.67
2018-12-18T00:20:37.116Z,33.33
2018-12-18T00:23:04.761Z,32.43
2018-12-18T00:25:32.322Z,37.73
2018-12-18T00:27:59.950Z,42.67
2018-12-18T00:30:27.570Z,42.70
2018-12-18T00:32:55.158Z,38.43
2018-12-18T00:35:22.771Z,41.33
2018-12-18T00:37:50.398Z,43.53
2018-12-18T00:40:18.010Z,39.93
2018-12-18T00:42:45.576Z,38.50
2018-12-18T00:45:13.140Z,43.13
2018-12-18T00:47:40.757Z,39.47
2018-12-18T00:50:08.352Z,54.93
2018-12-18T00:52:35.907Z,46.43
2018-12-18T00:55:03.461Z,49.60
2018-12-18T00:57:31.050Z,55.77
2018-12-18T00:59:58.653Z,63.97
2018-12-18T01:02:26.369Z,58.90
2018-12-18T01:04:53.955Z,62.10
2018-12-18T01:07:21.560Z,69.33
2018-12-18T01:09:50.134Z,70.27
2018-12-18T01:12:17.706Z,67.63
2018-12-18T01:14:45.309Z,69.20
2018-12-18T01:17:12.890Z,67.50
2018-12-18T01:19:40.465Z,69.23
2018-12-18T01:22:08.024Z,65.47
2018-12-18T01:24:35.573Z,62.97
2018-12-18T01:27:03.157Z,62.00
2018-12-18T01:29:30.721Z,58.83
2018-12-18T01:31:58.325Z,56.77
2018-12-18T01:34:25.886Z,62.07
2018-12-18T01:36:53.473Z,59.67
2018-12-18T01:39:21.104Z,58.53
2018-12-18T01:41:48.692Z,63.40
2018-12-18T01:44:16.269Z,51.63
2018-12-18T01:46:43.839Z,59.27
2018-12-18T01:49:11.438Z,56.43
2018-12-18T01:51:39.068Z,55.67
2018-12-18T01:54:06.638Z,56.03
2018-12-18T01:56:34.262Z,63.60
2018-12-18T01:59:01.822Z,57.43
2018-12-18T02:01:29.408Z,60.33
2018-12-18T02:03:56.997Z,55.30
2018-12-18T02:06:24.595Z,55.07
2018-12-18T02:08:52.164Z,45.53
2018-12-18T02:11:19.763Z,55.90
2018-12-18T02:13:47.304Z,46.23
2018-12-18T02:16:14.942Z,54.97
2018-12-18T02:18:42.522Z,51.10
2018-12-18T02:21:10.087Z,58.70
2018-12-18T02:23:37.721Z,46.70
2018-12-18T02:26:05.440Z,62.70
2018-12-18T02:28:32.986Z,57.60
2018-12-18T02:31:00.557Z,67.87
2018-12-18T02:33:28.163Z,52.47
2018-12-18T02:35:55.761Z,50.50
2018-12-18T02:38:23.355Z,53.67
2018-12-18T02:40:50.973Z,52.10
2018-12-18T02:43:18.574Z,58.50
2018-12-18T02:45:46.196Z,52.33
2018-12-18T02:48:13.833Z,52.93
2018-12-18T02:50:41.414Z,53.63
2018-12-18T02:53:08.960Z,55.80
2018-12-18T02:55:36.530Z,47.90
2018-12-18T02:58:04.068Z,60.63
2018-12-18T03:00:31.635Z,44.20
2018-12-18T03:02:59.211Z,51.60
2018-12-18T03:05:26.773Z,56.13
2018-12-18T03:07:54.364Z,48.83
2018-12-18T03:10:21.911Z,42.67
2018-12-18T03:12:49.490Z,44.30
2018-12-18T03:15:17.093Z,51.47
2018-12-18T03:17:44.669Z,47.87
2018-12-18T03:20:12.252Z,48.97
2018-12-18T03:22:39.832Z,48.40
2018-12-18T03:25:07.392Z,50.37
2018-12-18T03:27:34.950Z,47.30
2018-12-18T03:30:02.511Z,46.73
2018-12-18T03:32:30.649Z,53.30
2018-12-18T03:34:58.251Z,58.57
2018-12-18T03:37:25.883Z,50.20
2018-12-18T03:39:53.498Z,58.33
2018-12-18T03:42:21.066Z,51.60
2018-12-18T03:44:48.614Z,54.47
2018-12-18T03:47:16.236Z,57.13
2018-12-18T03:49:43.802Z,57.63
2018-12-18T03:52:11.398Z,57.77
2018-12-18T03:54:38.940Z,53.23
2018-12-18T03:57:06.525Z,58.83
2018-12-18T03:59:34.122Z,52.77
2018-12-18T04:02:01.820Z,57.23
2018-12-18T04:04:35.351Z,51.93
2018-12-18T04:06:58.992Z,62.47
2018-12-18T04:09:26.585Z,57.00
2018-12-18T04:11:59.964Z,58.10
2018-12-18T04:14:27.538Z,54.83
2018-12-18T04:16:55.098Z,53.13
2018-12-18T04:19:22.685Z,54.23
2018-12-18T04:21:50.230Z,54.90
2018-12-18T04:24:18.363Z,49.77
2018-12-18T04:26:46.053Z,52.80
2018-12-18T04:29:13.621Z,59.07
2018-12-18T04:31:41.266Z,62.63
2018-12-18T04:34:08.822Z,57.60
2018-12-18T04:36:36.991Z,56.60
2018-12-18T04:39:05.812Z,50.33
2018-12-18T04:41:33.490Z,48.80
2018-12-18T04:44:01.077Z,51.27
2018-12-18T04:46:28.721Z,59.33
2018-12-18T04:48:56.269Z,50.70
2018-12-18T04:51:23.837Z,52.60
2018-12-18T04:53:51.398Z,46.63
2018-12-18T04:56:19.001Z,59.57
2018-12-18T04:58:46.583Z,57.47
2018-12-18T05:01:14.208Z,54.70
2018-12-18T05:03:41.795Z,50.83
2018-12-18T05:06:09.352Z,56.40
2018-12-18T05:08:38.771Z,48.73
2018-12-18T05:11:06.389Z,53.03
2018-12-18T05:13:33.984Z,50.87
2018-12-18T05:16:01.622Z,54.90
2018-12-18T05:18:29.196Z,45.87
2018-12-18T05:20:56.761Z,58.90
2018-12-18T05:23:24.287Z,52.87
2018-12-18T05:25:51.850Z,43.80
2018-12-18T05:28:19.410Z,45.90
2018-12-18T05:30:46.984Z,50.80
2018-12-18T05:33:14.602Z,47.07
2018-12-18T05:35:42.319Z,53.60
2018-12-18T05:38:09.974Z,50.10
2018-12-18T05:40:37.608Z,46.87
2018-12-18T05:43:05.175Z,43.90
2018-12-18T05:45:32.770Z,51.37
2018-12-18T05:48:00.382Z,46.40
2018-12-18T05:50:27.969Z,53.47
2018-12-18T05:52:55.534Z,50.37
2018-12-18T05:55:23.131Z,43.23
2018-12-18T05:57:50.728Z,50.90
2018-12-18T06:00:18.275Z,52.67
2018-12-18T06:02:45.885Z,53.87
2018-12-18T06:05:13.553Z,49.60
2018-12-18T06:07:41.170Z,46.07
2018-12-18T06:10:08.755Z,42.10
2018-12-18T06:12:36.313Z,43.67
2018-12-18T06:15:03.868Z,43.10
2018-12-18T06:17:31.434Z,46.93
2018-12-18T06:19:59.015Z,45.43
2018-12-18T06:22:26.632Z,46.67
2018-12-18T06:24:54.194Z,45.00
2018-12-18T06:27:21.778Z,42.73
2018-12-18T06:29:49.356Z,51.13
2018-12-18T06:32:17.020Z,50.20
2018-12-18T06:34:44.644Z,34.27
2018-12-18T06:37:12.245Z,42.17
2018-12-18T06:39:41.029Z,36.13
2018-12-18T06:42:08.647Z,34.93
2018-12-18T06:44:36.198Z,33.10
2018-12-18T06:47:03.774Z,26.53
2018-12-18T06:49:31.355Z,32.03
2018-12-18T06:51:58.992Z,27.37
2018-12-18T06:54:26.546Z,22.80
2018-12-18T06:56:54.215Z,27.00
2018-12-18T06:59:21.847Z,24.77
2018-12-18T07:01:49.441Z,27.90
2018-12-18T07:04:17.090Z,26.37
2018-12-18T07:06:44.655Z,23.13
2018-12-18T07:09:12.220Z,26.20
2018-12-18T07:11:39.801Z,21.33
2018-12-18T07:14:07.432Z,27.10
2018-12-18T07:16:35.034Z,22.97
2018-12-18T07:19:02.622Z,22.57
2018-12-18T07:21:30.211Z,26.07
2018-12-18T07:23:57.871Z,25.70
2018-12-18T07:26:25.466Z,23.37
2018-12-18T07:28:53.049Z,21.53
2018-12-18T07:31:20.654Z,21.07
2018-12-18T07:33:48.246Z,22.80
2018-12-18T07:36:16.009Z,24.13
2018-12-18T07:38:43.684Z,24.73
2018-12-18T07:41:11.303Z,28.63
2018-12-18T07:43:38.858Z,23.23
2018-12-18T07:46:06.491Z,24.00
2018-12-18T07:48:34.111Z,26.27
2018-12-18T07:51:01.679Z,29.10
2018-12-18T07:53:29.261Z,30.90
2018-12-18T07:56:00.228Z,34.13
2018-12-18T07:58:26.445Z,28.17
2018-12-18T08:00:54.010Z,31.60
2018-12-18T08:03:21.600Z,32.67
2018-12-18T08:05:49.182Z,30.67
2018-12-18T08:08:16.745Z,27.43
2018-12-18T08:10:44.347Z,26.60
2018-12-18T08:13:12.015Z,37.37
2018-12-18T08:15:39.608Z,27.60
2018-12-18T08:18:08.083Z,31.63
2018-12-18T08:20:35.737Z,28.00
2018-12-18T08:23:03.431Z,37.37
2018-12-18T08:25:31.443Z,39.20
2018-12-18T08:27:59.198Z,36.87
2018-12-18T08:30:26.745Z,32.63
2018-12-18T08:32:54.397Z,43.83
2018-12-18T08:35:22.057Z,35.43
2018-12-18T08:37:49.674Z,36.87
2018-12-18T08:40:17.330Z,31.40
2018-12-18T08:42:44.914Z,33.20
2018-12-18T08:45:12.655Z,24.43
2018-12-18T08:47:40.294Z,29.43
2018-12-18T08:50:07.897Z,26.30
2018-12-18T08:52:35.483Z,25.70
2018-12-18T08:55:03.120Z,28.77
2018-12-18T08:57:30.765Z,29.30
2018-12-18T08:59:58.854Z,29.13
2018-12-18T09:02:26.424Z,29.47
2018-12-18T09:04:53.988Z,28.37
2018-12-18T09:07:21.554Z,24.33
2018-12-18T09:09:49.122Z,29.53
2018-12-18T09:12:16.720Z,27.07
2018-12-18T09:14:46.242Z,28.90
2018-12-18T09:17:15.794Z,25.30
2018-12-18T09:19:43.415Z,33.53
2018-12-18T09:22:11.038Z,30.13
2018-12-18T09:24:38.573Z,30.67
2018-12-18T09:27:06.130Z,25.70
2018-12-18T09:29:33.680Z,30.67
2018-12-18T09:32:01.272Z,30.30
2018-12-18T09:34:28.847Z,29.20
2018-12-18T09:36:56.388Z,28.83
2018-12-18T09:39:25.940Z,27.13
2018-12-18T09:41:55.470Z,26.73
2018-12-18T09:44:23.038Z,23.60
2018-12-18T09:46:51.022Z,25.27
2018-12-18T09:49:19.286Z,25.57
2018-12-18T09:51:46.861Z,17.93
2018-12-18T09:54:14.499Z,16.83
2018-12-18T09:56:47.842Z,21.43
2018-12-18T09:59:15.410Z,19.73
2018-12-18T10:01:42.961Z,18.90
2018-12-18T10:04:10.611Z,16.43
2018-12-18T10:06:38.254Z,20.03
2018-12-18T10:09:09.617Z,19.70
2018-12-18T10:11:36.394Z,19.67
2018-12-18T10:14:03.966Z,20.43
2018-12-18T10:16:31.550Z,25.33
2018-12-18T10:18:59.125Z,19.90
2018-12-18T10:21:26.673Z,24.80
2018-12-18T10:23:54.239Z,16.53
2018-12-18T10:26:21.758Z,18.20
2018-12-18T10:28:49.370Z,22.53
2018-12-18T10:31:16.944Z,19.20
2018-12-18T10:33:44.622Z,20.50
2018-12-18T10:36:12.168Z,19.87
2018-12-18T10:38:39.761Z,20.83
2018-12-18T10:41:07.299Z,19.00
2018-12-18T10:43:34.895Z,18.50
2018-12-18T10:46:02.704Z,20.10
2018-12-18T10:48:30.263Z,17.17
2018-12-18T10:50:57.858Z,17.20
2018-12-18T10:53:25.413Z,15.30
2018-12-18T10:55:52.978Z,15.90
2018-12-18T10:58:23.964Z,16.13
2018-12-18T11:00:55.795Z,18.17
2018-12-18T11:03:23.333Z,16.77
2018-12-18T11:05:50.893Z,16.40
2018-12-18T11:08:18.441Z,15.17
2018-12-18T11:10:45.993Z,21.47
2018-12-18T11:13:16.396Z,17.97
2018-12-18T11:15:44.349Z,19.27
2018-12-18T11:18:11.988Z,15.10
2018-12-18T11:20:39.539Z,17.97
2018-12-18T11:23:07.131Z,14.43
2018-12-18T11:25:34.713Z,18.17
2018-12-18T11:28:02.303Z,16.70
2018-12-18T11:30:29.840Z,16.20
2018-12-18T11:32:57.443Z,16.17
2018-12-18T11:35:25.001Z,15.40
2018-12-18T11:37:52.554Z,15.30
2018-12-18T11:40:20.100Z,14.40
2018-12-18T11:42:48.399Z,21.13
2018-12-18T11:45:15.949Z,17.53
2018-12-18T11:47:43.507Z,18.23
2018-12-18T11:50:11.077Z,16.10
2018-12-18T11:52:38.652Z,14.03
2018-12-18T11:55:06.197Z,18.07
2018-12-18T11:57:34.469Z,16.00
2018-12-18T12:00:02.946Z,16.80
2018-12-18T12:02:30.518Z,17.13
2018-12-18T12:04:58.140Z,17.97
2018-12-18T12:07:25.726Z,14.93
2018-12-18T12:09:53.387Z,15.20
2018-12-18T12:12:20.973Z,13.77
2018-12-18T12:14:48.566Z,14.47
2018-12-18T12:17:16.339Z,14.23
2018-12-18T12:19:43.904Z,12.50
2018-12-18T12:22:11.459Z,19.57
2018-12-18T12:24:39.946Z,12.37
2018-12-18T12:27:13.234Z,12.10
2018-12-18T12:29:40.818Z,15.07
2018-12-18T12:32:08.380Z,10.03
2018-12-18T12:34:35.920Z,14.20
2018-12-18T12:37:03.594Z,14.77
2018-12-18T12:39:31.165Z,12.97
2018-12-18T12:41:58.731Z,11.87
2018-12-18T12:44:26.297Z,8.10
2018-12-18T12:46:53.927Z,8.23
2018-12-18T12:49:23.484Z,11.90
2018-12-18T12:51:51.045Z,12.90
2018-12-18T12:54:18.615Z,8.00
2018-12-18T12:56:46.473Z,10.90
2018-12-18T12:59:14.066Z,13.40
2018-12-18T13:01:42.328Z,9.97
2018-12-18T13:04:10.096Z,6.00
2018-12-18T13:06:38.768Z,10.20
2018-12-18T13:09:07.147Z,10.50
2018-12-18T13:11:34.718Z,10.23
2018-12-18T13:14:02.400Z,11.07
2018-12-18T13:16:30.011Z,12.93
2018-12-18T13:18:57.740Z,10.33
2018-12-18T13:21:25.293Z,11.30
2018-12-18T13:23:52.850Z,14.20
2018-12-18T13:26:20.586Z,12.53
2018-12-18T13:28:48.167Z,7.57
2018-12-18T13:31:15.746Z,7.33
2018-12-18T13:33:43.333Z,8.17
2018-12-18T13:36:10.984Z,10.27
2018-12-18T13:38:38.582Z,9.03
2018-12-18T13:41:06.178Z,14.13
2018-12-18T13:43:33.807Z,10.30
2018-12-18T13:46:01.347Z,8.63
2018-12-18T13:48:28.942Z,7.17
2018-12-18T13:50:56.608Z,11.70
2018-12-18T13:53:24.170Z,6.47
2018-12-18T13:55:51.730Z,8.77
2018-12-18T13:58:19.308Z,11.53
2018-12-18T14:00:46.902Z,11.33
2018-12-18T14:03:14.472Z,8.40
2018-12-18T14:05:42.026Z,10.77
2018-12-18T14:08:09.583Z,13.67
2018-12-18T14:10:37.146Z,12.60
2018-12-18T14:13:04.711Z,10.73
2018-12-18T14:15:32.270Z,9.30
2018-12-18T14:17:59.846Z,12.67
2018-12-18T14:20:27.419Z,10.07
2018-12-18T14:22:54.999Z,12.70
2018-12-18T14:25:22.574Z,8.13
2018-12-18T14:27:50.131Z,6.90
2018-12-18T14:30:17.870Z,11.37
2018-12-18T14:32:46.042Z,9.23
2018-12-18T14:35:13.604Z,9.77
2018-12-18T14:37:41.189Z,6.97
2018-12-18T14:40:08.776Z,8.90
2018-12-18T14:42:36.411Z,7.60
2018-12-18T14:45:05.013Z,6.63
2018-12-18T14:47:32.573Z,9.27
2018-12-18T14:50:00.130Z,7.23
2018-12-18T14:52:27.694Z,12.43
2018-12-18T14:54:55.249Z,6.20
2018-12-18T14:57:22.877Z,9.70
2018-12-18T14:59:50.550Z,9.20
2018-12-18T15:02:18.103Z,11.50
2018-12-18T15:04:45.688Z,11.70
2018-12-18T15:07:13.255Z,7.17
2018-12-18T15:09:40.831Z,8.57
2018-12-18T15:12:08.491Z,8.93
2018-12-18T15:14:36.034Z,8.17
2018-12-18T15:17:03.598Z,7.63
2018-12-18T15:19:31.184Z,7.00
2018-12-18T15:21:59.860Z,9.43
2018-12-18T15:24:27.426Z,7.93
2018-12-18T15:26:55.143Z,9.70
2018-12-18T15:29:22.739Z,6.43
2018-12-18T15:31:50.319Z,7.53
2018-12-18T15:34:18.095Z,7.80
2018-12-18T15:36:45.744Z,11.73
2018-12-18T15:39:13.376Z,10.00
2018-12-18T15:41:41.044Z,10.70
2018-12-18T15:44:08.619Z,9.10
2018-12-18T15:46:36.171Z,10.23
2018-12-18T15:49:03.743Z,8.80
2018-12-18T15:51:31.314Z,7.53
2018-12-18T15:53:58.918Z,7.67
2018-12-18T15:56:26.472Z,6.23
2018-12-18T15:58:54.046Z,7.43
2018-12-18T16:01:21.585Z,10.17
2018-12-18T16:03:49.179Z,7.80
2018-12-18T16:06:16.739Z,8.37
2018-12-18T16:08:44.315Z,6.27
2018-12-18T16:11:11.871Z,10.27
2018-12-18T16:13:39.434Z,5.97
2018-12-18T16:16:07.410Z,7.70
2018-12-18T16:18:34.976Z,6.77
2018-12-18T16:21:02.561Z,10.83
2018-12-18T16:23:31.044Z,9.93
2018-12-18T16:25:58.723Z,6.67
2018-12-18T16:28:26.280Z,10.93
2018-12-18T16:30:53.827Z,7.87
2018-12-18T16:33:21.386Z,7.50
2018-12-18T16:35:49.079Z,6.57
2018-12-18T16:38:16.658Z,8.27
2018-12-18T16:40:44.274Z,7.03
2018-12-18T16:43:11.828Z,9.30
2018-12-18T16:45:39.366Z,13.53
2018-12-18T16:48:06.934Z,8.30
2018-12-18T16:50:34.928Z,9.13
2018-12-18T16:53:02.680Z,9.77
2018-12-18T16:55:30.288Z,8.10
2018-12-18T16:57:57.862Z,7.67
2018-12-18T17:00:25.415Z,8.40
2018-12-18T17:02:52.975Z,7.90
2018-12-18T17:05:20.532Z,9.93
2018-12-18T17:07:48.089Z,10.90
2018-12-18T17:10:15.769Z,8.17
2018-12-18T17:12:45.318Z,7.80
2018-12-18T17:15:12.902Z,5.93
2018-12-18T17:17:40.607Z,7.60
2018-12-18T17:20:08.171Z,13.70
2018-12-18T17:22:35.761Z,10.43
2018-12-18T17:25:03.625Z,81.37
2018-12-18T17:27:31.195Z,10.27
2018-12-18T17:29:58.777Z,9.27
2018-12-18T17:32:26.385Z,5.27
2018-12-18T17:34:53.951Z,8.10
2018-12-18T17:37:21.511Z,6.50
2018-12-18T17:39:49.096Z,8.27
2018-12-18T17:42:16.680Z,7.43
2018-12-18T17:44:44.302Z,7.27
2018-12-18T17:47:11.864Z,17.27
2018-12-18T17:49:39.473Z,8.90
2018-12-18T17:52:07.287Z,8.10
2018-12-18T17:54:34.863Z,9.07
2018-12-18T17:57:02.454Z,9.40
2018-12-18T17:59:30.005Z,7.97
2018-12-18T18:01:57.594Z,5.80
2018-12-18T18:04:25.212Z,4.13
2018-12-18T18:06:53.036Z,6.63
2018-12-18T18:09:20.659Z,5.50
2018-12-18T18:11:48.276Z,6.90
2018-12-18T18:14:16.245Z,7.00
2018-12-18T18:16:43.810Z,5.63
2018-12-18T18:19:11.485Z,5.33
2018-12-18T18:21:39.134Z,8.63
2018-12-18T18:24:06.714Z,5.70
2018-12-18T18:26:34.367Z,7.10
2018-12-18T18:29:01.932Z,5.60
2018-12-18T18:31:29.479Z,9.17
2018-12-18T18:33:57.062Z,5.10
2018-12-18T18:36:24.699Z,6.07
2018-12-18T18:38:52.262Z,8.90
2018-12-18T18:41:19.840Z,9.93
2018-12-18T18:43:47.440Z,8.30
2018-12-18T18:46:15.023Z,4.77
2018-12-18T18:48:42.663Z,8.20
2018-12-18T18:51:10.399Z,5.43
2018-12-18T18:53:37.996Z,6.93
2018-12-18T18:56:05.957Z,7.27
2018-12-18T18:58:33.607Z,7.00
2018-12-18T19:01:01.341Z,8.13
2018-12-18T19:03:28.945Z,10.73
2018-12-18T19:05:56.580Z,6.60
2018-12-18T19:08:24.144Z,5.20
2018-12-18T19:10:51.751Z,7.97
2018-12-18T19:13:19.431Z,5.20
2018-12-18T19:15:47.070Z,11.17
2018-12-18T19:18:14.622Z,6.17
2018-12-18T19:20:42.235Z,9.00
2018-12-18T19:23:09.795Z,8.67
2018-12-18T19:25:37.381Z,6.93
2018-12-18T19:28:04.938Z,8.70
2018-12-18T19:30:32.493Z,5.80
2018-12-18T19:33:00.089Z,4.97
2018-12-18T19:35:27.673Z,7.77
2018-12-18T19:37:55.278Z,5.07
2018-12-18T19:40:22.934Z,7.77
2018-12-18T19:42:50.505Z,11.37
2018-12-18T19:45:18.079Z,7.37
2018-12-18T19:47:45.623Z,9.70
2018-12-18T19:50:13.215Z,9.70
2018-12-18T19:52:41.019Z,11.40
2018-12-18T19:55:08.616Z,9.53
2018-12-18T19:57:36.194Z,8.73
2018-12-18T20:00:07.178Z,7.83
2018-12-18T20:02:34.757Z,7.00
2018-12-18T20:05:02.381Z,8.97
2018-12-18T20:07:29.991Z,6.53
2018-12-18T20:09:57.604Z,9.27
2018-12-18T20:12:25.160Z,15.80
2018-12-18T20:14:52.766Z,9.60
2018-12-18T20:17:20.520Z,7.17
2018-12-18T20:19:48.302Z,9.33
2018-12-18T20:22:15.891Z,9.07
2018-12-18T20:24:43.481Z,6.53
2018-12-18T20:27:11.241Z,6.43
2018-12-18T20:29:39.679Z,6.97
2018-12-18T20:32:07.295Z,5.77
2018-12-18T20:34:34.873Z,9.33
2018-12-18T20:37:02.478Z,7.10
2018-12-18T20:39:30.087Z,6.83
2018-12-18T20:41:57.879Z,6.00
2018-12-18T20:44:25.524Z,7.20
2018-12-18T20:46:53.109Z,8.30
2018-12-18T20:49:20.729Z,9.60
2018-12-18T20:51:48.292Z,11.03
2018-12-18T20:54:15.870Z,8.97
2018-12-18T20:56:43.551Z,8.43
2018-12-18T20:59:11.354Z,5.77
2018-12-18T21:01:38.946Z,8.60
2018-12-18T21:04:06.603Z,8.53
2018-12-18T21:06:34.301Z,6.33
2018-12-18T21:09:01.905Z,11.63
2018-12-18T21:11:29.553Z,8.87
2018-12-18T21:13:57.144Z,8.50
2018-12-18T21:16:24.750Z,6.20
2018-12-18T21:18:52.335Z,6.00
2018-12-18T21:21:19.908Z,5.93
2018-12-18T21:23:47.525Z,7.13
2018-12-18T21:26:15.371Z,8.20
2018-12-18T21:28:43.059Z,6.90
2018-12-18T21:31:10.649Z,5.73
2018-12-18T21:33:38.248Z,6.73
2018-12-18T21:36:05.874Z,4.77
2018-12-18T21:38:33.419Z,5.80
2018-12-18T21:41:01.064Z,6.63
2018-12-18T21:43:28.656Z,5.07
2018-12-18T21:45:56.232Z,8.37
2018-12-18T21:48:23.800Z,10.20
2018-12-18T21:50:51.394Z,7.23
2018-12-18T21:53:18.943Z,5.90
2018-12-18T21:55:46.507Z,6.57
2018-12-18T21:58:14.080Z,7.37
2018-12-18T22:00:41.618Z,6.77
2018-12-18T22:03:09.222Z,5.47
2018-12-18T22:05:36.818Z,8.13
2018-12-18T22:08:04.376Z,5.87
2018-12-18T22:10:31.909Z,7.70
2018-12-18T22:12:59.467Z,6.07
2018-12-18T22:15:27.017Z,6.57
2018-12-18T22:17:54.569Z,5.93
2018-12-18T22:20:22.119Z,6.60
2018-12-18T22:22:50.551Z,7.33
2018-12-18T22:25:18.103Z,4.40
2018-12-18T22:27:46.549Z,6.87
2018-12-18T22:30:14.486Z,5.03
2018-12-18T22:32:42.069Z,8.20
2018-12-18T22:35:09.648Z,6.70
2018-12-18T22:37:37.180Z,6.60
2018-12-18T22:40:04.773Z,4.87
2018-12-18T22:42:32.303Z,5.23
2018-12-18T22:44:59.872Z,7.27
2018-12-18T22:47:28.020Z,7.43
2018-12-18T22:49:55.583Z,5.90
2018-12-18T22:52:23.178Z,5.10
2018-12-18T22:54:50.722Z,5.50
2018-12-18T22:57:18.306Z,5.90
2018-12-18T22:59:45.855Z,5.23
2018-12-18T23:02:16.432Z,5.13
2018-12-18T23:04:44.069Z,6.13
2018-12-18T23:07:11.612Z,5.10
2018-12-18T23:09:39.169Z,5.80
2018-12-18T23:12:06.733Z,5.70
2018-12-18T23:14:34.281Z,5.23
2018-12-18T23:17:01.826Z,4.37
2018-12-18T23:19:29.360Z,6.77
2018-12-18T23:21:56.905Z,5.80
2018-12-18T23:24:24.446Z,4.53
2018-12-18T23:26:52.011Z,4.37
2018-12-18T23:29:20.403Z,4.73
2018-12-18T23:31:47.949Z,4.53
2018-12-18T23:34:15.501Z,4.00
2018-12-18T23:36:43.113Z,4.87
2018-12-18T23:39:10.676Z,6.70
2018-12-18T23:41:38.248Z,7.03
2018-12-18T23:44:05.931Z,5.53
2018-12-18T23:46:33.476Z,5.43
2018-12-18T23:49:01.144Z,4.63
2018-12-18T23:51:28.704Z,4.03
2018-12-18T23:53:56.268Z,5.30
2018-12-18T23:56:23.861Z,4.17
2018-12-18T23:58:51.418Z,5.43
